Beijing Capital International Airport

ZBAA | PEK

Beijing , Beijing , China

Friday, September 20th, 2019 | 03:24

Weather

ZBAA 191900Z 06001MPS CAVOK 16/13 Q1017 NOSIG

Charts

No Charts Available

Gates

397 Available

Runways

3 Available

Events

No events for this airport


New event